sensor_id;sensor_type;location;lat;lon;timestamp;temperature;humidity
24158;DHT22;12316;50.904;4.200;2023-12-20T00:00:37;7.50;99.90
24158;DHT22;12316;50.904;4.200;2023-12-20T00:03:03;7.60;99.90
24158;DHT22;12316;50.904;4.200;2023-12-20T00:05:29;7.70;99.90
24158;DHT22;12316;50.904;4.200;2023-12-20T00:07:57;7.60;99.90
24158;DHT22;12316;50.904;4.200;2023-12-20T00:10:23;7.60;99.90
24158;DHT22;12316;50.904;4.200;2023-12-20T00:12:48;7.60;99.90
24158;DHT22;12316;50.904;4.200;2023-12-20T00:15:14;7.70;99.90
24158;DHT22;12316;50.904;4.200;2023-12-20T00:17:40;7.60;99.90
24158;DHT22;12316;50.904;4.200;2023-12-20T00:20:06;7.60;99.90
24158;DHT22;12316;50.904;4.200;2023-12-20T00:22:32;7.50;99.90
24158;DHT22;12316;50.904;4.200;2023-12-20T00:24:57;7.50;99.90
24158;DHT22;12316;50.904;4.200;2023-12-20T00:27:23;7.50;99.90
24158;DHT22;12316;50.904;4.200;2023-12-20T00:29:49;7.50;99.90
24158;DHT22;12316;50.904;4.200;2023-12-20T00:32:16;7.40;99.90
24158;DHT22;12316;50.904;4.200;2023-12-20T00:34:42;7.30;99.90
24158;DHT22;12316;50.904;4.200;2023-12-20T00:37:08;7.30;99.90
24158;DHT22;12316;50.904;4.200;2023-12-20T00:39:34;7.30;99.90
24158;DHT22;12316;50.904;4.200;2023-12-20T00:41:59;7.30;99.90
24158;DHT22;12316;50.904;4.200;2023-12-20T00:44:25;7.20;99.90
24158;DHT22;12316;50.904;4.200;2023-12-20T00:46:51;7.10;99.90
24158;DHT22;12316;50.904;4.200;2023-12-20T00:49:17;7.20;99.90
24158;DHT22;12316;50.904;4.200;2023-12-20T00:51:43;7.10;99.90
24158;DHT22;12316;50.904;4.200;2023-12-20T00:54:09;7.10;99.90
24158;DHT22;12316;50.904;4.200;2023-12-20T00:56:35;7.10;99.90
24158;DHT22;12316;50.904;4.200;2023-12-20T00:59:01;7.10;99.90
24158;DHT22;12316;50.904;4.200;2023-12-20T01:01:27;7.10;99.90
24158;DHT22;12316;50.904;4.200;2023-12-20T01:03:53;7.10;99.90
24158;DHT22;12316;50.904;4.200;2023-12-20T01:06:18;7.10;99.90
24158;DHT22;12316;50.904;4.200;2023-12-20T01:08:44;7.10;99.90
24158;DHT22;12316;50.904;4.200;2023-12-20T01:11:10;7.10;99.90
24158;DHT22;12316;50.904;4.200;2023-12-20T01:13:36;7.00;99.90
24158;DHT22;12316;50.904;4.200;2023-12-20T01:16:02;7.20;99.90
24158;DHT22;12316;50.904;4.200;2023-12-20T01:18:28;7.10;99.90
24158;DHT22;12316;50.904;4.200;2023-12-20T01:20:54;7.10;99.90
24158;DHT22;12316;50.904;4.200;2023-12-20T01:23:19;7.10;99.90
24158;DHT22;12316;50.904;4.200;2023-12-20T01:25:45;7.00;99.90
24158;DHT22;12316;50.904;4.200;2023-12-20T01:28:10;7.20;99.90
24158;DHT22;12316;50.904;4.200;2023-12-20T01:30:36;7.10;99.90
24158;DHT22;12316;50.904;4.200;2023-12-20T01:33:02;7.10;99.90
24158;DHT22;12316;50.904;4.200;2023-12-20T01:35:27;6.90;99.90
24158;DHT22;12316;50.904;4.200;2023-12-20T01:37:53;6.90;99.90
24158;DHT22;12316;50.904;4.200;2023-12-20T01:40:22;6.80;99.90
24158;DHT22;12316;50.904;4.200;2023-12-20T01:42:58;6.90;99.90
24158;DHT22;12316;50.904;4.200;2023-12-20T01:45:24;6.80;99.90
24158;DHT22;12316;50.904;4.200;2023-12-20T01:47:49;6.90;99.90
24158;DHT22;12316;50.904;4.200;2023-12-20T01:50:15;7.00;99.90
24158;DHT22;12316;50.904;4.200;2023-12-20T01:52:42;7.00;99.90
24158;DHT22;12316;50.904;4.200;2023-12-20T01:55:08;7.10;99.90
24158;DHT22;12316;50.904;4.200;2023-12-20T01:57:40;7.00;99.90
24158;DHT22;12316;50.904;4.200;2023-12-20T02:00:06;7.00;99.90
24158;DHT22;12316;50.904;4.200;2023-12-20T02:02:33;6.90;99.90
24158;DHT22;12316;50.904;4.200;2023-12-20T02:04:59;6.90;99.90
24158;DHT22;12316;50.904;4.200;2023-12-20T02:07:25;6.90;99.90
24158;DHT22;12316;50.904;4.200;2023-12-20T02:09:52;7.00;99.90
24158;DHT22;12316;50.904;4.200;2023-12-20T02:12:18;7.10;99.90
24158;DHT22;12316;50.904;4.200;2023-12-20T02:14:44;6.90;99.90
24158;DHT22;12316;50.904;4.200;2023-12-20T02:17:10;6.90;99.90
24158;DHT22;12316;50.904;4.200;2023-12-20T02:19:35;6.80;99.90
24158;DHT22;12316;50.904;4.200;2023-12-20T02:22:08;6.80;99.90
24158;DHT22;12316;50.904;4.200;2023-12-20T02:24:33;6.90;99.90
24158;DHT22;12316;50.904;4.200;2023-12-20T02:26:59;7.00;99.90
24158;DHT22;12316;50.904;4.200;2023-12-20T02:29:25;7.00;99.90
24158;DHT22;12316;50.904;4.200;2023-12-20T02:31:51;7.10;99.90
24158;DHT22;12316;50.904;4.200;2023-12-20T02:34:16;7.10;99.90
24158;DHT22;12316;50.904;4.200;2023-12-20T02:36:42;7.10;99.90
24158;DHT22;12316;50.904;4.200;2023-12-20T02:39:07;7.20;99.90
24158;DHT22;12316;50.904;4.200;2023-12-20T02:41:33;7.20;99.90
24158;DHT22;12316;50.904;4.200;2023-12-20T02:43:59;7.10;99.90
24158;DHT22;12316;50.904;4.200;2023-12-20T02:46:24;7.10;99.90
24158;DHT22;12316;50.904;4.200;2023-12-20T02:48:50;7.20;99.90
24158;DHT22;12316;50.904;4.200;2023-12-20T02:51:16;7.30;99.90
24158;DHT22;12316;50.904;4.200;2023-12-20T02:53:41;7.30;99.90
24158;DHT22;12316;50.904;4.200;2023-12-20T02:56:07;7.40;99.90
24158;DHT22;12316;50.904;4.200;2023-12-20T02:58:32;7.40;99.90
24158;DHT22;12316;50.904;4.200;2023-12-20T03:00:58;7.40;99.90
24158;DHT22;12316;50.904;4.200;2023-12-20T03:03:24;7.40;99.90
24158;DHT22;12316;50.904;4.200;2023-12-20T03:05:50;7.40;99.90
24158;DHT22;12316;50.904;4.200;2023-12-20T03:08:16;7.50;99.90
24158;DHT22;12316;50.904;4.200;2023-12-20T03:10:41;7.40;99.90
24158;DHT22;12316;50.904;4.200;2023-12-20T03:13:07;7.50;99.90
24158;DHT22;12316;50.904;4.200;2023-12-20T03:15:32;7.60;99.90
24158;DHT22;12316;50.904;4.200;2023-12-20T03:17:58;7.60;99.90
24158;DHT22;12316;50.904;4.200;2023-12-20T03:20:24;7.60;99.90
24158;DHT22;12316;50.904;4.200;2023-12-20T03:22:51;7.60;99.90
24158;DHT22;12316;50.904;4.200;2023-12-20T03:25:17;7.60;99.90
24158;DHT22;12316;50.904;4.200;2023-12-20T03:27:43;7.70;99.90
24158;DHT22;12316;50.904;4.200;2023-12-20T03:30:09;7.80;99.90
24158;DHT22;12316;50.904;4.200;2023-12-20T03:32:34;7.80;99.90
24158;DHT22;12316;50.904;4.200;2023-12-20T03:35:00;7.70;99.90
24158;DHT22;12316;50.904;4.200;2023-12-20T03:37:26;7.70;99.90
24158;DHT22;12316;50.904;4.200;2023-12-20T03:39:51;7.60;99.90
24158;DHT22;12316;50.904;4.200;2023-12-20T03:42:17;7.60;99.90
24158;DHT22;12316;50.904;4.200;2023-12-20T03:44:42;7.60;99.90
24158;DHT22;12316;50.904;4.200;2023-12-20T03:47:08;7.60;99.90
24158;DHT22;12316;50.904;4.200;2023-12-20T03:49:34;7.70;99.90
24158;DHT22;12316;50.904;4.200;2023-12-20T03:52:02;7.70;99.90
24158;DHT22;12316;50.904;4.200;2023-12-20T03:54:28;7.70;99.90
24158;DHT22;12316;50.904;4.200;2023-12-20T03:56:54;7.60;99.90
24158;DHT22;12316;50.904;4.200;2023-12-20T03:59:19;7.60;99.90
24158;DHT22;12316;50.904;4.200;2023-12-20T04:01:45;7.70;99.90
24158;DHT22;12316;50.904;4.200;2023-12-20T04:04:11;7.60;99.90
24158;DHT22;12316;50.904;4.200;2023-12-20T04:06:37;7.60;99.90
24158;DHT22;12316;50.904;4.200;2023-12-20T04:09:03;7.50;99.90
24158;DHT22;12316;50.904;4.200;2023-12-20T04:11:29;7.40;99.90
24158;DHT22;12316;50.904;4.200;2023-12-20T04:13:54;7.40;99.90
24158;DHT22;12316;50.904;4.200;2023-12-20T04:16:20;7.50;99.90
24158;DHT22;12316;50.904;4.200;2023-12-20T04:18:46;7.60;99.90
24158;DHT22;12316;50.904;4.200;2023-12-20T04:21:11;7.60;99.90
24158;DHT22;12316;50.904;4.200;2023-12-20T04:23:37;7.70;99.90
24158;DHT22;12316;50.904;4.200;2023-12-20T04:26:02;7.40;99.90
24158;DHT22;12316;50.904;4.200;2023-12-20T04:28:28;7.30;99.90
24158;DHT22;12316;50.904;4.200;2023-12-20T04:30:56;7.20;99.90
24158;DHT22;12316;50.904;4.200;2023-12-20T04:33:22;7.30;99.90
24158;DHT22;12316;50.904;4.200;2023-12-20T04:35:48;7.20;99.90
24158;DHT22;12316;50.904;4.200;2023-12-20T04:38:14;7.30;99.90
24158;DHT22;12316;50.904;4.200;2023-12-20T04:40:39;7.30;99.90
24158;DHT22;12316;50.904;4.200;2023-12-20T04:43:07;7.30;99.90
24158;DHT22;12316;50.904;4.200;2023-12-20T04:45:33;7.40;99.90
24158;DHT22;12316;50.904;4.200;2023-12-20T04:47:58;7.50;99.90
24158;DHT22;12316;50.904;4.200;2023-12-20T04:50:24;7.60;99.90
24158;DHT22;12316;50.904;4.200;2023-12-20T04:52:50;7.60;99.90
24158;DHT22;12316;50.904;4.200;2023-12-20T04:55:15;7.60;99.90
24158;DHT22;12316;50.904;4.200;2023-12-20T04:57:41;7.60;99.90
24158;DHT22;12316;50.904;4.200;2023-12-20T05:00:07;7.60;99.90
24158;DHT22;12316;50.904;4.200;2023-12-20T05:02:35;7.60;99.90
24158;DHT22;12316;50.904;4.200;2023-12-20T05:05:00;7.50;99.90
24158;DHT22;12316;50.904;4.200;2023-12-20T05:07:26;7.50;99.90
24158;DHT22;12316;50.904;4.200;2023-12-20T05:09:51;7.30;99.90
24158;DHT22;12316;50.904;4.200;2023-12-20T05:12:17;7.30;99.90
24158;DHT22;12316;50.904;4.200;2023-12-20T05:14:43;7.30;99.90
24158;DHT22;12316;50.904;4.200;2023-12-20T05:17:08;7.20;99.90
24158;DHT22;12316;50.904;4.200;2023-12-20T05:19:34;7.20;99.90
24158;DHT22;12316;50.904;4.200;2023-12-20T05:22:01;7.10;99.90
24158;DHT22;12316;50.904;4.200;2023-12-20T05:24:27;7.10;99.90
24158;DHT22;12316;50.904;4.200;2023-12-20T05:26:53;7.00;99.90
24158;DHT22;12316;50.904;4.200;2023-12-20T05:29:18;6.90;99.90
24158;DHT22;12316;50.904;4.200;2023-12-20T05:31:44;6.90;99.90
24158;DHT22;12316;50.904;4.200;2023-12-20T05:34:10;7.00;99.90
24158;DHT22;12316;50.904;4.200;2023-12-20T05:36:36;6.90;99.90
24158;DHT22;12316;50.904;4.200;2023-12-20T05:39:02;6.90;99.90
24158;DHT22;12316;50.904;4.200;2023-12-20T05:41:29;6.90;99.90
24158;DHT22;12316;50.904;4.200;2023-12-20T05:43:55;7.00;99.90
24158;DHT22;12316;50.904;4.200;2023-12-20T05:46:21;7.00;99.90
24158;DHT22;12316;50.904;4.200;2023-12-20T05:48:47;7.10;99.90
24158;DHT22;12316;50.904;4.200;2023-12-20T05:51:12;6.90;99.90
24158;DHT22;12316;50.904;4.200;2023-12-20T05:53:38;6.90;99.90
24158;DHT22;12316;50.904;4.200;2023-12-20T05:56:04;6.80;99.90
24158;DHT22;12316;50.904;4.200;2023-12-20T05:58:31;6.70;99.90
24158;DHT22;12316;50.904;4.200;2023-12-20T06:00:57;6.80;99.90
24158;DHT22;12316;50.904;4.200;2023-12-20T06:03:23;6.80;99.90
24158;DHT22;12316;50.904;4.200;2023-12-20T06:05:48;6.90;99.90
24158;DHT22;12316;50.904;4.200;2023-12-20T06:08:14;7.10;99.90
24158;DHT22;12316;50.904;4.200;2023-12-20T06:10:40;7.00;99.90
24158;DHT22;12316;50.904;4.200;2023-12-20T06:13:06;7.10;99.90
24158;DHT22;12316;50.904;4.200;2023-12-20T06:15:32;7.30;99.90
24158;DHT22;12316;50.904;4.200;2023-12-20T06:17:58;7.20;99.90
24158;DHT22;12316;50.904;4.200;2023-12-20T06:20:24;7.30;99.90
24158;DHT22;12316;50.904;4.200;2023-12-20T06:22:50;7.20;99.90
24158;DHT22;12316;50.904;4.200;2023-12-20T06:25:16;7.20;99.90
24158;DHT22;12316;50.904;4.200;2023-12-20T06:27:42;7.10;99.90
24158;DHT22;12316;50.904;4.200;2023-12-20T06:30:08;7.10;99.90
24158;DHT22;12316;50.904;4.200;2023-12-20T06:32:36;7.10;99.90
24158;DHT22;12316;50.904;4.200;2023-12-20T06:35:04;7.00;99.90
24158;DHT22;12316;50.904;4.200;2023-12-20T06:37:30;7.00;99.90
24158;DHT22;12316;50.904;4.200;2023-12-20T06:39:56;7.10;99.90
24158;DHT22;12316;50.904;4.200;2023-12-20T06:42:22;7.00;99.90
24158;DHT22;12316;50.904;4.200;2023-12-20T06:44:48;6.90;99.90
24158;DHT22;12316;50.904;4.200;2023-12-20T06:47:14;6.90;99.90
24158;DHT22;12316;50.904;4.200;2023-12-20T06:49:40;6.80;99.90
24158;DHT22;12316;50.904;4.200;2023-12-20T06:52:06;6.60;99.90
24158;DHT22;12316;50.904;4.200;2023-12-20T06:54:31;6.50;99.90
24158;DHT22;12316;50.904;4.200;2023-12-20T06:56:59;6.40;99.90
24158;DHT22;12316;50.904;4.200;2023-12-20T06:59:25;6.40;99.90
24158;DHT22;12316;50.904;4.200;2023-12-20T07:01:51;6.40;99.90
24158;DHT22;12316;50.904;4.200;2023-12-20T07:04:17;6.40;99.90
24158;DHT22;12316;50.904;4.200;2023-12-20T07:06:48;6.40;99.90
24158;DHT22;12316;50.904;4.200;2023-12-20T07:09:16;6.40;99.90
24158;DHT22;12316;50.904;4.200;2023-12-20T07:11:42;6.30;99.90
24158;DHT22;12316;50.904;4.200;2023-12-20T07:14:08;6.30;99.90
24158;DHT22;12316;50.904;4.200;2023-12-20T07:16:33;6.20;99.90
24158;DHT22;12316;50.904;4.200;2023-12-20T07:19:01;6.10;99.90
24158;DHT22;12316;50.904;4.200;2023-12-20T07:21:28;6.10;99.90
24158;DHT22;12316;50.904;4.200;2023-12-20T07:23:53;6.10;99.90
24158;DHT22;12316;50.904;4.200;2023-12-20T07:26:19;6.00;99.90
24158;DHT22;12316;50.904;4.200;2023-12-20T07:28:44;6.00;99.90
24158;DHT22;12316;50.904;4.200;2023-12-20T07:31:10;6.10;99.90
24158;DHT22;12316;50.904;4.200;2023-12-20T07:33:36;6.10;99.90
24158;DHT22;12316;50.904;4.200;2023-12-20T07:36:02;6.00;99.90
24158;DHT22;12316;50.904;4.200;2023-12-20T07:38:27;5.90;99.90
24158;DHT22;12316;50.904;4.200;2023-12-20T07:40:53;5.90;99.90
24158;DHT22;12316;50.904;4.200;2023-12-20T07:43:18;6.00;99.90
24158;DHT22;12316;50.904;4.200;2023-12-20T07:45:44;5.90;99.90
24158;DHT22;12316;50.904;4.200;2023-12-20T07:48:10;5.90;99.90
24158;DHT22;12316;50.904;4.200;2023-12-20T07:50:35;6.00;99.90
24158;DHT22;12316;50.904;4.200;2023-12-20T07:53:02;5.90;99.90
24158;DHT22;12316;50.904;4.200;2023-12-20T07:55:28;6.00;99.90
24158;DHT22;12316;50.904;4.200;2023-12-20T07:57:55;5.80;99.90
24158;DHT22;12316;50.904;4.200;2023-12-20T08:00:21;6.00;99.90
24158;DHT22;12316;50.904;4.200;2023-12-20T08:02:47;6.00;99.90
24158;DHT22;12316;50.904;4.200;2023-12-20T08:05:12;6.10;99.90
24158;DHT22;12316;50.904;4.200;2023-12-20T08:07:39;6.00;99.90
24158;DHT22;12316;50.904;4.200;2023-12-20T08:10:05;6.00;99.90
24158;DHT22;12316;50.904;4.200;2023-12-20T08:12:30;6.00;99.90
24158;DHT22;12316;50.904;4.200;2023-12-20T08:14:56;6.10;99.90
24158;DHT22;12316;50.904;4.200;2023-12-20T08:17:22;6.10;99.90
24158;DHT22;12316;50.904;4.200;2023-12-20T08:19:49;6.10;99.90
24158;DHT22;12316;50.904;4.200;2023-12-20T08:22:14;6.30;99.90
24158;DHT22;12316;50.904;4.200;2023-12-20T08:24:40;6.30;99.90
24158;DHT22;12316;50.904;4.200;2023-12-20T08:27:06;6.40;99.90
24158;DHT22;12316;50.904;4.200;2023-12-20T08:29:31;6.50;99.90
24158;DHT22;12316;50.904;4.200;2023-12-20T08:31:57;6.50;99.90
24158;DHT22;12316;50.904;4.200;2023-12-20T08:34:23;6.50;99.90
24158;DHT22;12316;50.904;4.200;2023-12-20T08:36:50;6.70;99.90
24158;DHT22;12316;50.904;4.200;2023-12-20T08:39:16;6.60;99.90
24158;DHT22;12316;50.904;4.200;2023-12-20T08:41:42;6.60;99.90
24158;DHT22;12316;50.904;4.200;2023-12-20T08:44:08;6.50;99.90
24158;DHT22;12316;50.904;4.200;2023-12-20T08:46:34;6.50;99.90
24158;DHT22;12316;50.904;4.200;2023-12-20T08:49:01;6.40;99.90
24158;DHT22;12316;50.904;4.200;2023-12-20T08:51:26;6.40;99.90
24158;DHT22;12316;50.904;4.200;2023-12-20T08:53:53;6.30;99.90
24158;DHT22;12316;50.904;4.200;2023-12-20T08:56:19;6.50;99.90
24158;DHT22;12316;50.904;4.200;2023-12-20T08:58:45;6.50;99.90
24158;DHT22;12316;50.904;4.200;2023-12-20T09:01:12;6.50;99.90
24158;DHT22;12316;50.904;4.200;2023-12-20T09:03:39;6.50;99.90
24158;DHT22;12316;50.904;4.200;2023-12-20T09:06:04;6.50;99.90
24158;DHT22;12316;50.904;4.200;2023-12-20T09:08:31;6.50;99.90
24158;DHT22;12316;50.904;4.200;2023-12-20T09:10:57;6.70;99.90
24158;DHT22;12316;50.904;4.200;2023-12-20T09:13:23;6.70;99.90
24158;DHT22;12316;50.904;4.200;2023-12-20T09:15:57;6.70;99.90
24158;DHT22;12316;50.904;4.200;2023-12-20T09:18:23;6.70;99.90
24158;DHT22;12316;50.904;4.200;2023-12-20T09:20:48;6.70;99.90
24158;DHT22;12316;50.904;4.200;2023-12-20T09:23:14;6.80;99.90
24158;DHT22;12316;50.904;4.200;2023-12-20T09:25:40;7.00;99.90
24158;DHT22;12316;50.904;4.200;2023-12-20T09:28:05;7.00;99.90
24158;DHT22;12316;50.904;4.200;2023-12-20T09:30:31;7.10;99.90
24158;DHT22;12316;50.904;4.200;2023-12-20T09:32:57;7.20;99.90
24158;DHT22;12316;50.904;4.200;2023-12-20T09:35:23;7.30;99.90
24158;DHT22;12316;50.904;4.200;2023-12-20T09:37:49;7.40;99.90
24158;DHT22;12316;50.904;4.200;2023-12-20T09:40:19;7.50;99.90
24158;DHT22;12316;50.904;4.200;2023-12-20T09:42:56;7.70;99.90
24158;DHT22;12316;50.904;4.200;2023-12-20T09:45:22;7.70;99.90
24158;DHT22;12316;50.904;4.200;2023-12-20T09:47:50;7.80;99.90
24158;DHT22;12316;50.904;4.200;2023-12-20T09:50:18;7.90;99.90
24158;DHT22;12316;50.904;4.200;2023-12-20T09:52:49;8.00;99.90
24158;DHT22;12316;50.904;4.200;2023-12-20T09:55:16;8.10;99.90
24158;DHT22;12316;50.904;4.200;2023-12-20T09:57:42;8.30;99.90
24158;DHT22;12316;50.904;4.200;2023-12-20T10:00:08;8.20;99.90
24158;DHT22;12316;50.904;4.200;2023-12-20T10:02:36;8.10;99.90
24158;DHT22;12316;50.904;4.200;2023-12-20T10:05:06;8.00;99.90
24158;DHT22;12316;50.904;4.200;2023-12-20T10:07:35;7.90;99.90
24158;DHT22;12316;50.904;4.200;2023-12-20T10:10:02;7.90;99.90
24158;DHT22;12316;50.904;4.200;2023-12-20T10:12:28;7.90;99.90
24158;DHT22;12316;50.904;4.200;2023-12-20T10:14:53;8.00;99.90
24158;DHT22;12316;50.904;4.200;2023-12-20T10:17:21;8.20;99.90
24158;DHT22;12316;50.904;4.200;2023-12-20T10:19:47;8.30;99.90
24158;DHT22;12316;50.904;4.200;2023-12-20T10:22:12;8.40;99.90
24158;DHT22;12316;50.904;4.200;2023-12-20T10:24:40;8.50;99.90
24158;DHT22;12316;50.904;4.200;2023-12-20T10:27:07;8.60;99.90
24158;DHT22;12316;50.904;4.200;2023-12-20T10:29:36;8.70;99.90
24158;DHT22;12316;50.904;4.200;2023-12-20T10:32:27;8.80;99.90
24158;DHT22;12316;50.904;4.200;2023-12-20T10:34:54;8.80;99.90
24158;DHT22;12316;50.904;4.200;2023-12-20T10:37:20;8.80;99.90
24158;DHT22;12316;50.904;4.200;2023-12-20T10:39:53;8.90;99.90
24158;DHT22;12316;50.904;4.200;2023-12-20T10:42:26;8.90;99.90
24158;DHT22;12316;50.904;4.200;2023-12-20T10:44:52;8.90;99.90
24158;DHT22;12316;50.904;4.200;2023-12-20T10:47:20;8.80;99.90
24158;DHT22;12316;50.904;4.200;2023-12-20T10:49:46;9.00;99.90
24158;DHT22;12316;50.904;4.200;2023-12-20T10:52:12;9.10;99.90
24158;DHT22;12316;50.904;4.200;2023-12-20T10:54:41;9.00;99.90
24158;DHT22;12316;50.904;4.200;2023-12-20T10:57:07;8.90;99.90
24158;DHT22;12316;50.904;4.200;2023-12-20T10:59:37;8.90;99.90
24158;DHT22;12316;50.904;4.200;2023-12-20T11:02:04;9.10;99.90
24158;DHT22;12316;50.904;4.200;2023-12-20T11:04:43;9.00;99.90
24158;DHT22;12316;50.904;4.200;2023-12-20T11:09:57;9.20;99.90
24158;DHT22;12316;50.904;4.200;2023-12-20T11:14:55;9.30;99.90
24158;DHT22;12316;50.904;4.200;2023-12-20T11:17:28;9.20;99.90
24158;DHT22;12316;50.904;4.200;2023-12-20T11:22:26;9.20;99.90
24158;DHT22;12316;50.904;4.200;2023-12-20T11:24:53;9.20;99.90
24158;DHT22;12316;50.904;4.200;2023-12-20T11:27:19;9.20;99.90
24158;DHT22;12316;50.904;4.200;2023-12-20T11:29:52;9.20;99.90
24158;DHT22;12316;50.904;4.200;2023-12-20T11:34:51;9.30;99.90
24158;DHT22;12316;50.904;4.200;2023-12-20T11:37:19;9.30;99.90
24158;DHT22;12316;50.904;4.200;2023-12-20T11:39:45;9.30;99.90
24158;DHT22;12316;50.904;4.200;2023-12-20T11:42:10;9.30;99.90
24158;DHT22;12316;50.904;4.200;2023-12-20T11:44:37;9.40;99.90
24158;DHT22;12316;50.904;4.200;2023-12-20T11:47:03;9.40;99.90
24158;DHT22;12316;50.904;4.200;2023-12-20T11:49:29;9.50;99.90
24158;DHT22;12316;50.904;4.200;2023-12-20T11:51:56;9.60;99.90
24158;DHT22;12316;50.904;4.200;2023-12-20T11:54:22;9.50;99.90
24158;DHT22;12316;50.904;4.200;2023-12-20T11:56:48;9.60;99.90
24158;DHT22;12316;50.904;4.200;2023-12-20T11:59:14;9.40;99.90
24158;DHT22;12316;50.904;4.200;2023-12-20T12:01:40;9.40;99.90
24158;DHT22;12316;50.904;4.200;2023-12-20T12:04:12;9.30;99.90
24158;DHT22;12316;50.904;4.200;2023-12-20T12:06:39;9.40;99.90
24158;DHT22;12316;50.904;4.200;2023-12-20T12:09:05;9.40;99.90
24158;DHT22;12316;50.904;4.200;2023-12-20T12:11:30;9.50;99.90
24158;DHT22;12316;50.904;4.200;2023-12-20T12:13:56;9.60;99.90
24158;DHT22;12316;50.904;4.200;2023-12-20T12:16:22;9.60;99.90
24158;DHT22;12316;50.904;4.200;2023-12-20T12:18:56;9.60;99.90
24158;DHT22;12316;50.904;4.200;2023-12-20T12:21:21;9.60;99.90
24158;DHT22;12316;50.904;4.200;2023-12-20T12:23:47;9.70;99.90
24158;DHT22;12316;50.904;4.200;2023-12-20T12:26:13;9.80;99.90
24158;DHT22;12316;50.904;4.200;2023-12-20T12:28:42;9.80;99.90
24158;DHT22;12316;50.904;4.200;2023-12-20T12:31:08;9.80;99.90
24158;DHT22;12316;50.904;4.200;2023-12-20T12:33:34;9.70;99.90
24158;DHT22;12316;50.904;4.200;2023-12-20T12:36:01;9.70;99.90
24158;DHT22;12316;50.904;4.200;2023-12-20T12:38:27;9.60;99.90
24158;DHT22;12316;50.904;4.200;2023-12-20T12:40:54;9.60;99.90
24158;DHT22;12316;50.904;4.200;2023-12-20T12:43:19;9.70;99.90
24158;DHT22;12316;50.904;4.200;2023-12-20T12:45:45;9.70;99.90
24158;DHT22;12316;50.904;4.200;2023-12-20T12:48:11;9.70;99.90
24158;DHT22;12316;50.904;4.200;2023-12-20T12:50:36;9.80;99.90
24158;DHT22;12316;50.904;4.200;2023-12-20T12:53:02;9.90;99.90
24158;DHT22;12316;50.904;4.200;2023-12-20T12:55:28;9.80;99.90
24158;DHT22;12316;50.904;4.200;2023-12-20T12:57:54;9.80;99.90
24158;DHT22;12316;50.904;4.200;2023-12-20T13:00:20;9.80;99.90
24158;DHT22;12316;50.904;4.200;2023-12-20T13:02:47;9.90;99.90
24158;DHT22;12316;50.904;4.200;2023-12-20T13:05:12;9.80;99.90
24158;DHT22;12316;50.904;4.200;2023-12-20T13:07:38;9.90;99.90
24158;DHT22;12316;50.904;4.200;2023-12-20T13:10:05;10.00;99.90
24158;DHT22;12316;50.904;4.200;2023-12-20T13:12:31;10.10;99.90
24158;DHT22;12316;50.904;4.200;2023-12-20T13:14:57;10.00;99.90
24158;DHT22;12316;50.904;4.200;2023-12-20T13:17:23;10.00;99.90
24158;DHT22;12316;50.904;4.200;2023-12-20T13:19:49;10.00;99.90
24158;DHT22;12316;50.904;4.200;2023-12-20T13:22:15;10.10;99.90
24158;DHT22;12316;50.904;4.200;2023-12-20T13:24:41;10.00;99.90
24158;DHT22;12316;50.904;4.200;2023-12-20T13:27:09;9.90;99.90
24158;DHT22;12316;50.904;4.200;2023-12-20T13:29:35;10.00;99.90
24158;DHT22;12316;50.904;4.200;2023-12-20T13:32:01;9.90;99.90
24158;DHT22;12316;50.904;4.200;2023-12-20T13:34:26;9.80;99.90
24158;DHT22;12316;50.904;4.200;2023-12-20T13:36:52;9.90;99.90
24158;DHT22;12316;50.904;4.200;2023-12-20T13:39:18;9.90;99.90
24158;DHT22;12316;50.904;4.200;2023-12-20T13:41:44;9.90;99.90
24158;DHT22;12316;50.904;4.200;2023-12-20T13:44:09;10.10;99.90
24158;DHT22;12316;50.904;4.200;2023-12-20T13:46:36;10.10;99.90
24158;DHT22;12316;50.904;4.200;2023-12-20T13:49:02;10.20;99.90
24158;DHT22;12316;50.904;4.200;2023-12-20T13:51:27;10.20;99.90
24158;DHT22;12316;50.904;4.200;2023-12-20T13:53:53;10.30;99.90
24158;DHT22;12316;50.904;4.200;2023-12-20T13:56:19;10.30;99.90
24158;DHT22;12316;50.904;4.200;2023-12-20T13:58:45;10.30;99.90
24158;DHT22;12316;50.904;4.200;2023-12-20T14:01:12;10.20;99.90
24158;DHT22;12316;50.904;4.200;2023-12-20T14:03:38;10.20;99.90
24158;DHT22;12316;50.904;4.200;2023-12-20T14:06:03;10.10;99.90
24158;DHT22;12316;50.904;4.200;2023-12-20T14:08:29;10.20;99.90
24158;DHT22;12316;50.904;4.200;2023-12-20T14:10:55;10.20;99.90
24158;DHT22;12316;50.904;4.200;2023-12-20T14:13:20;10.30;99.90
24158;DHT22;12316;50.904;4.200;2023-12-20T14:15:46;10.30;99.90
24158;DHT22;12316;50.904;4.200;2023-12-20T14:18:13;10.20;99.90
24158;DHT22;12316;50.904;4.200;2023-12-20T14:20:40;10.30;99.90
24158;DHT22;12316;50.904;4.200;2023-12-20T14:23:08;10.30;99.90
24158;DHT22;12316;50.904;4.200;2023-12-20T14:25:35;10.30;99.90
24158;DHT22;12316;50.904;4.200;2023-12-20T14:28:03;10.20;99.90
24158;DHT22;12316;50.904;4.200;2023-12-20T14:30:29;10.20;99.90
24158;DHT22;12316;50.904;4.200;2023-12-20T14:32:54;10.30;99.90
24158;DHT22;12316;50.904;4.200;2023-12-20T14:35:20;10.40;99.90
24158;DHT22;12316;50.904;4.200;2023-12-20T14:37:46;10.50;99.90
24158;DHT22;12316;50.904;4.200;2023-12-20T14:40:12;10.50;99.90
24158;DHT22;12316;50.904;4.200;2023-12-20T14:42:42;10.50;99.90
24158;DHT22;12316;50.904;4.200;2023-12-20T14:45:08;10.50;99.90
24158;DHT22;12316;50.904;4.200;2023-12-20T14:47:34;10.50;99.90
24158;DHT22;12316;50.904;4.200;2023-12-20T14:50:02;10.60;99.90
24158;DHT22;12316;50.904;4.200;2023-12-20T14:52:29;10.60;99.90
24158;DHT22;12316;50.904;4.200;2023-12-20T14:54:56;10.50;99.90
24158;DHT22;12316;50.904;4.200;2023-12-20T14:57:21;10.40;99.90
24158;DHT22;12316;50.904;4.200;2023-12-20T14:59:47;10.40;99.90
24158;DHT22;12316;50.904;4.200;2023-12-20T15:02:12;10.30;99.90
24158;DHT22;12316;50.904;4.200;2023-12-20T15:04:38;10.40;99.90
24158;DHT22;12316;50.904;4.200;2023-12-20T15:07:04;10.30;99.90
24158;DHT22;12316;50.904;4.200;2023-12-20T15:09:31;10.40;99.90
24158;DHT22;12316;50.904;4.200;2023-12-20T15:11:57;10.40;99.90
24158;DHT22;12316;50.904;4.200;2023-12-20T15:14:23;10.40;99.90
24158;DHT22;12316;50.904;4.200;2023-12-20T15:16:48;10.40;99.90
24158;DHT22;12316;50.904;4.200;2023-12-20T15:19:14;10.40;99.90
24158;DHT22;12316;50.904;4.200;2023-12-20T15:21:40;10.30;99.90
24158;DHT22;12316;50.904;4.200;2023-12-20T15:24:11;10.40;99.90
24158;DHT22;12316;50.904;4.200;2023-12-20T15:26:42;10.40;99.90
24158;DHT22;12316;50.904;4.200;2023-12-20T15:29:09;10.40;99.90
24158;DHT22;12316;50.904;4.200;2023-12-20T15:31:47;10.30;99.90
24158;DHT22;12316;50.904;4.200;2023-12-20T15:34:14;10.20;99.90
24158;DHT22;12316;50.904;4.200;2023-12-20T15:36:41;10.20;99.90
24158;DHT22;12316;50.904;4.200;2023-12-20T15:39:07;10.20;99.90
24158;DHT22;12316;50.904;4.200;2023-12-20T15:41:35;10.30;99.90
24158;DHT22;12316;50.904;4.200;2023-12-20T15:44:01;10.30;99.90
24158;DHT22;12316;50.904;4.200;2023-12-20T15:46:27;10.30;99.90
24158;DHT22;12316;50.904;4.200;2023-12-20T15:48:52;10.40;99.90